createdAt,value
2023-05-02T00:00:57.042Z,11.26
2023-05-02T00:02:01.338Z,11.23
2023-05-02T00:03:05.629Z,11.21
2023-05-02T00:04:09.937Z,11.18
2023-05-02T00:05:14.144Z,11.16
2023-05-02T00:06:18.444Z,11.14
2023-05-02T00:07:22.663Z,11.12
2023-05-02T00:08:26.993Z,11.10
2023-05-02T00:09:31.280Z,11.08
2023-05-02T00:10:35.566Z,11.07
2023-05-02T00:11:39.843Z,11.06
2023-05-02T00:12:44.169Z,11.06
2023-05-02T00:13:48.413Z,11.05
2023-05-02T00:14:52.776Z,11.05
2023-05-02T00:15:57.125Z,11.05
2023-05-02T00:17:01.542Z,11.05
2023-05-02T00:18:05.713Z,11.04
2023-05-02T00:19:09.959Z,11.03
2023-05-02T00:20:14.310Z,11.03
2023-05-02T00:21:18.530Z,11.03
2023-05-02T00:22:22.824Z,11.04
2023-05-02T00:23:27.180Z,11.04
2023-05-02T00:24:45.440Z,11.05
2023-05-02T00:25:48.650Z,11.07
2023-05-02T00:26:52.832Z,11.08
2023-05-02T00:27:57.124Z,11.08
2023-05-02T00:29:01.541Z,11.08
2023-05-02T00:30:05.678Z,11.08
2023-05-02T00:31:10.160Z,11.08
2023-05-02T00:32:14.352Z,11.09
2023-05-02T00:33:18.752Z,11.08
2023-05-02T00:34:22.989Z,11.08
2023-05-02T00:35:27.279Z,11.08
2023-05-02T00:36:31.588Z,11.09
2023-05-02T00:37:35.968Z,11.11
2023-05-02T00:38:40.198Z,11.11
2023-05-02T00:39:44.475Z,11.10
2023-05-02T00:40:48.725Z,11.09
2023-05-02T00:41:53.000Z,11.11
2023-05-02T00:42:57.436Z,11.12
2023-05-02T00:44:01.745Z,11.14
2023-05-02T00:45:06.037Z,11.17
2023-05-02T00:46:10.393Z,11.18
2023-05-02T00:47:14.603Z,11.21
2023-05-02T00:48:19.039Z,11.23
2023-05-02T00:49:23.271Z,11.26
2023-05-02T00:50:27.700Z,11.27
2023-05-02T00:51:31.902Z,11.29
2023-05-02T00:52:36.181Z,11.30
2023-05-02T00:53:40.495Z,11.32
2023-05-02T00:54:44.862Z,11.33
2023-05-02T00:55:49.116Z,11.34
2023-05-02T00:56:53.420Z,11.36
2023-05-02T00:58:03.700Z,11.37
2023-05-02T00:59:09.649Z,11.36
2023-05-02T01:00:13.064Z,11.36
2023-05-02T01:01:17.322Z,11.35
2023-05-02T01:02:21.667Z,11.33
2023-05-02T01:03:26.055Z,11.32
2023-05-02T01:04:30.419Z,11.32
2023-05-02T01:05:34.590Z,11.33
2023-05-02T01:06:38.924Z,11.33
2023-05-02T01:07:43.156Z,11.32
2023-05-02T01:08:47.409Z,11.30
2023-05-02T01:09:51.700Z,11.28
2023-05-02T01:10:55.930Z,11.29
2023-05-02T01:12:00.269Z,11.29
2023-05-02T01:13:04.564Z,11.29
2023-05-02T01:14:08.792Z,11.28
2023-05-02T01:15:13.200Z,11.28
2023-05-02T01:16:17.486Z,11.28
2023-05-02T01:17:21.709Z,11.29
2023-05-02T01:18:26.088Z,11.29
2023-05-02T01:19:30.348Z,11.30
2023-05-02T01:20:37.648Z,11.30
2023-05-02T01:21:41.008Z,11.31
2023-05-02T01:22:45.323Z,11.32
2023-05-02T01:23:49.563Z,11.32
2023-05-02T01:24:53.823Z,11.33
2023-05-02T01:25:58.159Z,11.31
2023-05-02T01:27:02.641Z,11.30
2023-05-02T01:28:06.835Z,11.30
2023-05-02T01:29:11.211Z,11.30
2023-05-02T01:30:15.592Z,11.29
2023-05-02T01:31:19.825Z,11.28
2023-05-02T01:32:24.179Z,11.27
2023-05-02T01:33:28.410Z,11.25
2023-05-02T01:34:32.773Z,11.24
2023-05-02T01:35:37.129Z,11.23
2023-05-02T01:36:41.355Z,11.23
2023-05-02T01:37:45.660Z,11.23
2023-05-02T01:38:49.950Z,11.24
2023-05-02T01:39:54.230Z,11.24
2023-05-02T01:40:58.496Z,11.22
2023-05-02T01:42:02.755Z,11.20
2023-05-02T01:43:07.060Z,11.18
2023-05-02T01:44:11.360Z,11.18
2023-05-02T01:45:15.713Z,11.18
2023-05-02T01:46:20.012Z,11.19
2023-05-02T01:47:24.213Z,11.19
2023-05-02T01:48:28.476Z,11.20
2023-05-02T01:49:46.852Z,11.20
2023-05-02T01:50:49.982Z,11.20
2023-05-02T01:51:54.278Z,11.21
2023-05-02T01:52:58.726Z,11.21
2023-05-02T01:54:02.835Z,11.19
2023-05-02T01:55:07.127Z,11.19
2023-05-02T01:56:11.501Z,11.19
2023-05-02T01:57:15.864Z,11.19
2023-05-02T01:58:20.204Z,11.18
2023-05-02T01:59:24.834Z,11.18
2023-05-02T02:00:31.976Z,11.18
2023-05-02T02:01:35.555Z,11.17
2023-05-02T02:02:39.712Z,11.17
2023-05-02T02:03:43.993Z,11.15
2023-05-02T02:04:48.506Z,11.14
2023-05-02T02:05:52.540Z,11.14
2023-05-02T02:06:56.849Z,11.12
2023-05-02T02:08:01.166Z,11.12
2023-05-02T02:09:05.500Z,11.11
2023-05-02T02:10:15.889Z,11.10
2023-05-02T02:11:18.874Z,11.10
2023-05-02T02:12:23.080Z,11.10
2023-05-02T02:13:27.405Z,11.10
2023-05-02T02:14:31.635Z,11.10
2023-05-02T02:15:35.932Z,11.10
2023-05-02T02:16:40.233Z,11.08
2023-05-02T02:17:44.519Z,11.08
2023-05-02T02:18:48.857Z,11.04
2023-05-02T02:19:53.174Z,11.00
2023-05-02T02:20:57.517Z,10.97
2023-05-02T02:22:01.731Z,10.94
2023-05-02T02:23:05.999Z,10.91
2023-05-02T02:24:10.348Z,10.90
2023-05-02T02:25:17.562Z,10.90
2023-05-02T02:26:20.938Z,10.91
2023-05-02T02:27:25.288Z,10.92
2023-05-02T02:28:29.611Z,10.92
2023-05-02T02:29:33.837Z,10.91
2023-05-02T02:30:52.175Z,10.90
2023-05-02T02:31:55.349Z,10.90
2023-05-02T02:32:59.604Z,10.88
2023-05-02T02:34:03.801Z,10.86
2023-05-02T02:35:08.004Z,10.85
2023-05-02T02:36:12.290Z,10.83
2023-05-02T02:37:16.597Z,10.81
2023-05-02T02:38:34.952Z,10.78
2023-05-02T02:39:38.079Z,10.74
2023-05-02T02:40:42.339Z,10.71
2023-05-02T02:41:46.678Z,10.70
2023-05-02T02:43:04.884Z,10.69
2023-05-02T02:44:08.058Z,10.67
2023-05-02T02:45:12.237Z,10.68
2023-05-02T02:46:16.487Z,10.69
2023-05-02T02:47:20.938Z,10.69
2023-05-02T02:48:25.195Z,10.73
2023-05-02T02:49:29.431Z,10.75
2023-05-02T02:50:33.720Z,10.79
2023-05-02T02:51:38.037Z,10.82
2023-05-02T02:52:42.377Z,10.83
2023-05-02T02:53:46.753Z,10.85
2023-05-02T02:54:50.966Z,10.87
2023-05-02T02:55:55.269Z,10.88
2023-05-02T02:56:59.736Z,10.89
2023-05-02T02:58:03.907Z,10.90
2023-05-02T02:59:08.267Z,10.91
2023-05-02T03:00:12.598Z,10.93
2023-05-02T03:01:16.865Z,10.95
2023-05-02T03:02:21.083Z,10.96
2023-05-02T03:03:25.494Z,10.97
2023-05-02T03:04:29.743Z,10.97
2023-05-02T03:05:34.059Z,10.96
2023-05-02T03:06:38.311Z,10.95
2023-05-02T03:07:42.532Z,10.94
2023-05-02T03:08:46.829Z,10.96
2023-05-02T03:09:51.111Z,10.97
2023-05-02T03:10:55.451Z,10.98
2023-05-02T03:11:59.767Z,11.00
2023-05-02T03:13:03.977Z,11.00
2023-05-02T03:14:08.277Z,11.01
2023-05-02T03:15:26.722Z,11.03
2023-05-02T03:16:29.813Z,11.05
2023-05-02T03:17:34.112Z,11.07
2023-05-02T03:18:38.348Z,11.08
2023-05-02T03:19:42.598Z,11.09
2023-05-02T03:20:46.894Z,11.10
2023-05-02T03:21:51.171Z,11.11
2023-05-02T03:23:09.582Z,11.13
2023-05-02T03:24:12.802Z,11.16
2023-05-02T03:25:17.062Z,11.20
2023-05-02T03:26:21.278Z,11.22
2023-05-02T03:27:25.584Z,11.26
2023-05-02T03:28:29.846Z,11.28
2023-05-02T03:29:34.144Z,11.30
2023-05-02T03:30:38.447Z,11.32
2023-05-02T03:31:42.687Z,11.35
2023-05-02T03:32:47.005Z,11.37
2023-05-02T03:33:51.368Z,11.39
2023-05-02T03:34:55.592Z,11.40
2023-05-02T03:35:59.879Z,11.42
2023-05-02T03:37:04.180Z,11.44
2023-05-02T03:38:08.472Z,11.46
2023-05-02T03:39:12.842Z,11.47
2023-05-02T03:40:17.128Z,11.49
2023-05-02T03:41:21.380Z,11.51
2023-05-02T03:42:25.683Z,11.52
2023-05-02T03:43:29.948Z,11.52
2023-05-02T03:44:34.425Z,11.51
2023-05-02T03:45:38.656Z,11.51
2023-05-02T03:46:43.064Z,11.50
2023-05-02T03:47:47.356Z,11.50
2023-05-02T03:48:51.551Z,11.51
2023-05-02T03:49:55.989Z,11.52
2023-05-02T03:51:00.171Z,11.52
2023-05-02T03:52:04.555Z,11.53
2023-05-02T03:53:08.808Z,11.54
2023-05-02T03:54:13.179Z,11.54
2023-05-02T03:55:17.504Z,11.55
2023-05-02T03:56:21.832Z,11.54
2023-05-02T03:57:26.028Z,11.55
2023-05-02T03:58:30.345Z,11.55
2023-05-02T03:59:34.735Z,11.57
2023-05-02T04:00:39.190Z,11.58
2023-05-02T04:01:43.483Z,11.60
2023-05-02T04:02:47.964Z,11.61
2023-05-02T04:03:52.132Z,11.62
2023-05-02T04:04:56.351Z,11.63
2023-05-02T04:06:00.860Z,11.64
2023-05-02T04:07:04.980Z,11.64
2023-05-02T04:08:23.398Z,11.64
2023-05-02T04:09:26.639Z,11.63
2023-05-02T04:10:30.870Z,11.62
2023-05-02T04:11:35.093Z,11.59
2023-05-02T04:12:39.359Z,11.55
2023-05-02T04:13:43.617Z,11.53
2023-05-02T04:14:47.877Z,11.50
2023-05-02T04:15:52.250Z,11.45
2023-05-02T04:16:56.532Z,11.41
2023-05-02T04:18:00.860Z,11.37
2023-05-02T04:19:05.042Z,11.33
2023-05-02T04:20:09.426Z,11.28
2023-05-02T04:21:13.916Z,11.21
2023-05-02T04:22:18.030Z,11.14
2023-05-02T04:23:22.409Z,11.06
2023-05-02T04:24:40.766Z,10.99
2023-05-02T04:25:43.876Z,10.92
2023-05-02T04:26:48.068Z,10.89
2023-05-02T04:27:52.408Z,10.84
2023-05-02T04:28:56.648Z,10.80
2023-05-02T04:30:01.269Z,10.77
2023-05-02T04:31:05.227Z,10.73
2023-05-02T04:32:09.428Z,10.71
2023-05-02T04:33:13.755Z,10.67
2023-05-02T04:34:18.012Z,10.62
2023-05-02T04:35:22.272Z,10.57
2023-05-02T04:36:26.703Z,10.54
2023-05-02T04:37:30.888Z,10.51
2023-05-02T04:38:35.152Z,10.49
2023-05-02T04:39:39.440Z,10.45
2023-05-02T04:40:43.785Z,10.41
2023-05-02T04:41:48.073Z,10.39
2023-05-02T04:42:52.387Z,10.39
2023-05-02T04:43:56.704Z,10.38
2023-05-02T04:45:00.949Z,10.36
2023-05-02T04:46:05.267Z,10.33
2023-05-02T04:47:09.524Z,10.29
2023-05-02T04:48:13.811Z,10.24
2023-05-02T04:49:18.065Z,10.20
2023-05-02T04:50:22.322Z,10.17
2023-05-02T04:51:26.698Z,10.15
2023-05-02T04:52:30.928Z,10.13
2023-05-02T04:53:35.172Z,10.11
2023-05-02T04:54:39.421Z,10.08
2023-05-02T04:55:43.764Z,10.06
2023-05-02T04:56:48.025Z,10.04
2023-05-02T04:57:52.245Z,10.02
2023-05-02T04:58:56.589Z,9.98
2023-05-02T05:00:01.124Z,9.94
2023-05-02T05:01:05.089Z,9.90
2023-05-02T05:02:09.236Z,9.88
2023-05-02T05:03:13.588Z,9.88
2023-05-02T05:04:17.808Z,9.89
2023-05-02T05:05:22.060Z,9.89
2023-05-02T05:06:29.213Z,9.90
2023-05-02T05:07:32.583Z,9.89
2023-05-02T05:08:36.750Z,9.87
2023-05-02T05:09:41.104Z,9.87
2023-05-02T05:10:45.304Z,9.84
2023-05-02T05:11:49.591Z,9.81
2023-05-02T05:12:53.842Z,9.76
2023-05-02T05:13:58.050Z,9.74
2023-05-02T05:15:02.349Z,9.72
2023-05-02T05:16:06.724Z,9.70
2023-05-02T05:17:10.962Z,9.68
2023-05-02T05:18:15.317Z,9.67
2023-05-02T05:20:46.513Z,9.62
2023-05-02T05:21:50.680Z,9.59
2023-05-02T05:22:54.923Z,9.55
2023-05-02T05:23:59.226Z,9.51
2023-05-02T05:25:03.483Z,9.49
2023-05-02T05:26:07.645Z,9.48
2023-05-02T05:27:18.036Z,9.47
2023-05-02T05:28:20.912Z,9.45
2023-05-02T05:29:25.167Z,9.45
2023-05-02T05:30:29.415Z,9.46
2023-05-02T05:31:33.615Z,9.46
2023-05-02T05:32:37.919Z,9.47
2023-05-02T05:33:42.096Z,9.47
2023-05-02T05:34:46.326Z,9.46
2023-05-02T05:35:50.515Z,9.44
2023-05-02T05:36:54.915Z,9.43
2023-05-02T05:37:59.116Z,9.43
2023-05-02T05:39:03.390Z,9.44
2023-05-02T05:40:07.717Z,9.43
2023-05-02T05:41:11.852Z,9.43
2023-05-02T05:42:16.246Z,9.43
2023-05-02T05:43:20.449Z,9.42
2023-05-02T05:44:24.719Z,9.41
2023-05-02T05:45:28.926Z,9.40
2023-05-02T05:46:33.181Z,9.41
2023-05-02T05:47:37.862Z,9.44
2023-05-02T05:48:41.710Z,9.48
2023-05-02T05:49:46.857Z,9.53
2023-05-02T05:50:50.727Z,9.56
2023-05-02T05:51:55.014Z,9.59
2023-05-02T05:52:59.227Z,9.59
2023-05-02T05:54:03.568Z,9.58
2023-05-02T05:55:07.761Z,9.55
2023-05-02T05:56:12.107Z,9.50
2023-05-02T05:57:16.293Z,9.47
2023-05-02T05:58:20.621Z,9.44
2023-05-02T05:59:24.774Z,9.42
2023-05-02T06:00:29.197Z,9.41
2023-05-02T06:01:33.459Z,9.42
2023-05-02T06:02:37.720Z,9.44
2023-05-02T06:03:42.090Z,9.44
2023-05-02T06:04:46.288Z,9.44
2023-05-02T06:05:50.579Z,9.43
2023-05-02T06:06:55.061Z,9.44
2023-05-02T06:07:59.139Z,9.46
2023-05-02T06:09:03.375Z,9.48
2023-05-02T06:10:07.532Z,9.50
2023-05-02T06:11:12.035Z,9.49
2023-05-02T06:12:16.198Z,9.49
2023-05-02T06:13:20.494Z,9.51
2023-05-02T06:14:24.702Z,9.53
2023-05-02T06:15:28.901Z,9.55
2023-05-02T06:16:33.237Z,9.55
2023-05-02T06:17:37.427Z,9.57
2023-05-02T06:18:41.754Z,9.58
2023-05-02T06:19:45.966Z,9.59
2023-05-02T06:20:50.243Z,9.59
2023-05-02T06:21:54.541Z,9.59
2023-05-02T06:22:58.794Z,9.56
2023-05-02T06:24:03.072Z,9.56
2023-05-02T06:25:07.322Z,9.56
2023-05-02T06:26:11.681Z,9.56
2023-05-02T06:27:15.934Z,9.59
2023-05-02T06:28:20.164Z,9.63
2023-05-02T06:29:24.444Z,9.68
2023-05-02T06:30:28.697Z,9.71
2023-05-02T06:32:41.908Z,9.73
2023-05-02T06:33:46.052Z,9.75
2023-05-02T06:34:50.275Z,9.76
2023-05-02T06:35:54.506Z,9.78
2023-05-02T06:36:58.760Z,9.80
2023-05-02T06:38:02.974Z,9.82
2023-05-02T06:39:07.262Z,9.81
2023-05-02T06:40:11.563Z,9.81
2023-05-02T06:41:18.003Z,9.80
2023-05-02T06:42:20.039Z,9.80
2023-05-02T06:43:24.297Z,9.79
2023-05-02T06:44:28.556Z,9.80
2023-05-02T06:45:32.800Z,9.81
2023-05-02T06:46:37.209Z,9.80
2023-05-02T06:47:41.493Z,9.77
2023-05-02T06:48:45.760Z,9.73
2023-05-02T06:49:49.997Z,9.72
2023-05-02T06:50:54.230Z,9.69
2023-05-02T06:51:58.489Z,9.69
2023-05-02T06:53:02.841Z,9.69
2023-05-02T06:54:07.069Z,9.71
2023-05-02T06:55:11.455Z,9.70
2023-05-02T06:56:15.707Z,9.67
2023-05-02T06:57:19.839Z,9.66
2023-05-02T06:58:24.447Z,9.65
2023-05-02T06:59:28.543Z,9.66
2023-05-02T07:00:32.875Z,9.71
2023-05-02T07:01:37.211Z,9.79
2023-05-02T07:02:41.337Z,9.86
2023-05-02T07:03:45.701Z,9.96
2023-05-02T07:04:48.819Z,10.09
2023-05-02T07:05:53.117Z,10.20
2023-05-02T07:06:57.414Z,10.29
2023-05-02T07:08:01.666Z,10.36
2023-05-02T07:09:05.885Z,10.40
2023-05-02T07:10:10.264Z,10.41
2023-05-02T07:11:14.535Z,10.43
2023-05-02T07:12:18.890Z,10.46
2023-05-02T07:13:23.185Z,10.49
2023-05-02T07:14:27.448Z,10.54
2023-05-02T07:15:31.673Z,10.61
2023-05-02T07:16:36.028Z,10.64
2023-05-02T07:17:40.272Z,10.65
2023-05-02T07:18:44.587Z,10.68
2023-05-02T07:19:48.874Z,10.68
2023-05-02T07:20:53.129Z,10.66
2023-05-02T07:21:57.388Z,10.64
2023-05-02T07:23:01.679Z,10.64
2023-05-02T07:24:05.958Z,10.60
2023-05-02T07:25:10.200Z,10.56
2023-05-02T07:26:14.459Z,10.54
2023-05-02T07:27:18.810Z,10.51
2023-05-02T07:28:23.000Z,10.48
2023-05-02T07:29:27.365Z,10.46
2023-05-02T07:30:31.624Z,10.44
2023-05-02T07:31:35.863Z,10.42
2023-05-02T07:32:40.105Z,10.40
2023-05-02T07:33:44.316Z,10.37
2023-05-02T07:34:48.614Z,10.34
2023-05-02T07:35:52.869Z,10.34
2023-05-02T07:36:57.162Z,10.35
2023-05-02T07:38:01.412Z,10.37
2023-05-02T07:39:05.795Z,10.41
2023-05-02T07:40:10.030Z,10.45
2023-05-02T07:41:14.310Z,10.47
2023-05-02T07:42:18.557Z,10.48
2023-05-02T07:43:22.832Z,10.49
2023-05-02T07:44:27.119Z,10.48
2023-05-02T07:45:31.341Z,10.42
2023-05-02T07:46:35.723Z,10.38
2023-05-02T07:47:39.926Z,10.38
2023-05-02T07:48:44.178Z,10.39
2023-05-02T07:49:48.447Z,10.40
2023-05-02T07:50:52.719Z,10.43
2023-05-02T07:51:56.997Z,10.44
2023-05-02T07:53:02.165Z,10.48
2023-05-02T07:54:06.157Z,10.53
2023-05-02T07:55:10.359Z,10.55
2023-05-02T07:56:14.678Z,10.57
2023-05-02T07:57:19.048Z,10.62
2023-05-02T07:58:23.267Z,10.67
2023-05-02T07:59:27.656Z,10.71
2023-05-02T08:00:31.875Z,10.75
2023-05-02T08:01:36.183Z,10.78
2023-05-02T08:02:40.592Z,10.82
2023-05-02T08:03:44.992Z,10.88
2023-05-02T08:04:55.120Z,10.96
2023-05-02T08:05:57.998Z,11.05
2023-05-02T08:07:02.259Z,11.14
2023-05-02T08:08:06.588Z,11.19
2023-05-02T08:09:10.825Z,11.23
2023-05-02T08:10:15.096Z,11.28
2023-05-02T08:11:20.432Z,11.32
2023-05-02T08:12:26.762Z,11.37
2023-05-02T08:13:30.124Z,11.41
2023-05-02T08:14:34.396Z,11.39
2023-05-02T08:15:39.244Z,11.36
2023-05-02T08:16:46.080Z,11.36
2023-05-02T08:17:47.601Z,11.39
2023-05-02T08:18:51.822Z,11.42
2023-05-02T08:19:56.957Z,11.46
2023-05-02T08:21:00.930Z,11.51
2023-05-02T08:22:05.166Z,11.57
2023-05-02T08:23:09.517Z,11.59
2023-05-02T08:24:13.757Z,11.55
2023-05-02T08:25:18.055Z,11.52
2023-05-02T08:26:22.351Z,11.49
2023-05-02T08:27:26.618Z,11.43
2023-05-02T08:28:30.913Z,11.37
2023-05-02T08:29:35.192Z,11.32
2023-05-02T08:30:39.425Z,11.31
2023-05-02T08:31:43.707Z,11.30
2023-05-02T08:32:48.004Z,11.28
2023-05-02T08:33:52.226Z,11.29
2023-05-02T08:34:56.505Z,11.35
2023-05-02T08:36:00.756Z,11.44
2023-05-02T08:37:05.013Z,11.54
2023-05-02T08:38:09.374Z,11.62
2023-05-02T08:39:13.716Z,11.69
2023-05-02T08:40:27.158Z,11.76
2023-05-02T08:41:22.215Z,11.83
2023-05-02T08:42:26.506Z,11.87
2023-05-02T08:43:30.815Z,11.88
2023-05-02T08:44:35.125Z,11.88
2023-05-02T08:45:39.424Z,11.89
2023-05-02T08:46:43.766Z,11.90
2023-05-02T08:47:48.017Z,11.91
2023-05-02T08:48:52.347Z,11.90
2023-05-02T08:49:56.628Z,11.81
2023-05-02T08:51:00.980Z,11.69
2023-05-02T08:52:05.197Z,11.65
2023-05-02T08:53:09.582Z,11.67
2023-05-02T08:54:13.916Z,11.66
2023-05-02T08:55:18.247Z,11.66
2023-05-02T08:56:22.555Z,11.69
2023-05-02T08:57:26.812Z,11.74
2023-05-02T08:58:31.151Z,11.78
2023-05-02T08:59:35.505Z,11.81
2023-05-02T09:00:39.823Z,11.83
2023-05-02T09:01:44.244Z,11.86
2023-05-02T09:02:48.487Z,11.85
2023-05-02T09:03:52.801Z,11.87
2023-05-02T09:04:57.091Z,11.94
2023-05-02T09:06:01.324Z,12.03
2023-05-02T09:07:05.729Z,12.09
2023-05-02T09:08:09.953Z,12.09
2023-05-02T09:09:18.983Z,12.08
2023-05-02T09:10:20.755Z,12.08
2023-05-02T09:11:24.980Z,12.08
2023-05-02T09:12:29.336Z,12.10
2023-05-02T09:13:33.623Z,12.08
2023-05-02T09:14:37.874Z,12.03
2023-05-02T09:15:42.174Z,11.97
2023-05-02T09:16:46.664Z,11.91
2023-05-02T09:17:50.786Z,11.89
2023-05-02T09:18:55.085Z,11.87
2023-05-02T09:19:59.454Z,11.83
2023-05-02T09:21:03.726Z,11.84
2023-05-02T09:22:08.075Z,11.88
2023-05-02T09:23:12.314Z,11.93
2023-05-02T09:24:16.677Z,12.02
2023-05-02T09:25:20.934Z,12.12
2023-05-02T09:26:25.225Z,12.24
2023-05-02T09:27:29.609Z,12.30
2023-05-02T09:28:33.914Z,12.36
2023-05-02T09:29:38.261Z,12.44
2023-05-02T09:30:42.636Z,12.54
2023-05-02T09:31:55.725Z,12.66
2023-05-02T09:32:51.263Z,12.75
2023-05-02T09:33:55.432Z,12.81
2023-05-02T09:35:00.098Z,12.86
2023-05-02T09:36:04.114Z,12.95
2023-05-02T09:37:08.473Z,13.06
2023-05-02T09:38:12.842Z,13.12
2023-05-02T09:39:17.119Z,13.15
2023-05-02T09:40:21.446Z,13.16
2023-05-02T09:41:25.841Z,13.15
2023-05-02T09:42:30.076Z,13.11
2023-05-02T09:43:34.451Z,13.03
2023-05-02T09:44:38.710Z,12.94
2023-05-02T09:45:43.147Z,12.86
2023-05-02T09:46:47.366Z,12.83
2023-05-02T09:47:51.713Z,12.80
2023-05-02T09:48:56.082Z,12.83
2023-05-02T09:50:00.345Z,12.86
2023-05-02T09:51:04.633Z,12.89
2023-05-02T09:52:08.905Z,12.91
2023-05-02T09:53:13.281Z,12.90
2023-05-02T09:54:17.551Z,12.90
2023-05-02T09:55:27.924Z,12.89
2023-05-02T09:56:30.971Z,12.76
2023-05-02T09:57:49.264Z,12.65
2023-05-02T09:58:52.424Z,12.54
2023-05-02T09:59:56.620Z,12.48
2023-05-02T10:01:00.902Z,12.50
2023-05-02T10:02:05.399Z,12.59
2023-05-02T10:03:09.581Z,12.69
2023-05-02T10:04:14.255Z,12.82
2023-05-02T10:05:18.269Z,12.92
2023-05-02T10:06:22.803Z,12.95
2023-05-02T10:07:27.031Z,12.90
2023-05-02T10:08:31.327Z,12.80
2023-05-02T10:09:49.566Z,12.70
2023-05-02T10:10:52.741Z,12.65
2023-05-02T10:11:56.962Z,12.62
2023-05-02T10:13:01.228Z,12.61
2023-05-02T10:14:05.636Z,12.65
2023-05-02T10:15:09.876Z,12.73
2023-05-02T10:16:14.284Z,12.84
2023-05-02T10:17:18.441Z,12.93
2023-05-02T10:18:22.835Z,12.98
2023-05-02T10:19:27.271Z,13.00
2023-05-02T10:20:31.539Z,12.94
2023-05-02T10:21:35.782Z,12.92
2023-05-02T10:22:40.146Z,12.93
2023-05-02T10:23:44.421Z,12.98
2023-05-02T10:24:48.694Z,13.04
2023-05-02T10:25:53.016Z,13.08
2023-05-02T10:26:57.310Z,13.09
2023-05-02T10:28:01.584Z,13.14
2023-05-02T10:29:05.874Z,13.20
2023-05-02T10:30:10.318Z,13.26
2023-05-02T10:31:14.739Z,13.35
2023-05-02T10:32:18.946Z,13.42
2023-05-02T10:33:23.195Z,13.44
2023-05-02T10:34:27.495Z,13.39
2023-05-02T10:35:34.832Z,13.34
2023-05-02T10:36:38.212Z,13.28
2023-05-02T10:37:42.492Z,13.23
2023-05-02T10:38:46.795Z,13.21
2023-05-02T10:39:51.058Z,13.21
2023-05-02T10:40:55.337Z,13.25
2023-05-02T10:41:59.716Z,13.30
2023-05-02T10:43:04.020Z,13.38
2023-05-02T10:44:08.303Z,13.46
2023-05-02T10:45:12.635Z,13.54
2023-05-02T10:46:16.921Z,13.62
2023-05-02T10:47:21.177Z,13.66
2023-05-02T10:48:25.517Z,13.71
2023-05-02T10:49:29.809Z,13.77
2023-05-02T10:50:34.115Z,13.81
2023-05-02T10:51:38.425Z,13.77
2023-05-02T10:52:42.742Z,13.70
2023-05-02T10:53:47.096Z,13.65
2023-05-02T10:54:51.621Z,13.64
2023-05-02T10:56:09.822Z,13.66
2023-05-02T10:57:13.080Z,13.73
2023-05-02T10:58:17.435Z,13.81
2023-05-02T10:59:21.715Z,13.89
2023-05-02T11:00:26.079Z,13.98
2023-05-02T11:01:30.572Z,14.09
2023-05-02T11:02:34.876Z,14.17
2023-05-02T11:03:53.043Z,14.21
2023-05-02T11:05:10.290Z,14.23
2023-05-02T11:06:13.340Z,14.20
2023-05-02T11:07:17.680Z,14.14
2023-05-02T11:08:23.206Z,14.04
2023-05-02T11:09:26.290Z,13.93
2023-05-02T11:10:30.593Z,13.83
2023-05-02T11:11:34.947Z,13.75
2023-05-02T11:12:39.135Z,13.75
2023-05-02T11:13:43.427Z,13.81
2023-05-02T11:14:47.919Z,13.88
2023-05-02T11:15:52.124Z,13.99
2023-05-02T11:16:56.517Z,14.16
2023-05-02T11:18:00.775Z,14.31
2023-05-02T11:19:11.091Z,14.45
2023-05-02T11:20:14.032Z,14.51
2023-05-02T11:21:18.414Z,14.51
2023-05-02T11:22:22.718Z,14.46
2023-05-02T11:23:26.979Z,14.38
2023-05-02T11:24:31.351Z,14.36
2023-05-02T11:25:41.722Z,14.36
2023-05-02T11:26:44.735Z,14.29
2023-05-02T11:27:49.003Z,14.22
2023-05-02T11:28:53.337Z,14.25
2023-05-02T11:29:57.514Z,14.35
2023-05-02T11:31:01.964Z,14.48
2023-05-02T11:32:06.413Z,14.60
2023-05-02T11:33:10.701Z,14.69
2023-05-02T11:34:14.957Z,14.82
2023-05-02T11:35:19.321Z,14.95
2023-05-02T11:36:23.657Z,15.10
2023-05-02T11:37:28.755Z,15.21
2023-05-02T11:38:32.339Z,15.21
2023-05-02T11:39:36.770Z,15.06
2023-05-02T11:40:41.018Z,14.87
2023-05-02T11:41:45.359Z,14.69
2023-05-02T11:42:49.650Z,14.62
2023-05-02T11:43:54.113Z,14.58
2023-05-02T11:44:59.036Z,14.48
2023-05-02T11:46:03.060Z,14.40
2023-05-02T11:47:07.174Z,14.45
2023-05-02T11:48:11.558Z,14.57
2023-05-02T11:49:15.820Z,14.72
2023-05-02T11:50:20.076Z,14.90
2023-05-02T11:51:24.362Z,15.10
2023-05-02T11:52:28.724Z,15.33
2023-05-02T11:53:33.048Z,15.58
2023-05-02T11:54:37.418Z,15.81
2023-05-02T11:55:42.041Z,15.93
2023-05-02T11:56:46.388Z,16.03
2023-05-02T11:57:50.769Z,16.16
2023-05-02T11:58:55.005Z,16.19
2023-05-02T11:59:59.315Z,16.17
2023-05-02T12:01:03.632Z,15.98
2023-05-02T12:02:08.214Z,15.79
2023-05-02T12:03:12.507Z,15.75
2023-05-02T12:04:16.720Z,15.82
2023-05-02T12:05:21.224Z,15.86
2023-05-02T12:06:39.751Z,15.72
2023-05-02T12:07:42.991Z,15.61
2023-05-02T12:08:47.306Z,15.66
2023-05-02T12:09:51.627Z,15.82
2023-05-02T12:10:55.902Z,16.06
2023-05-02T12:12:00.276Z,16.34
2023-05-02T12:13:04.607Z,16.57
2023-05-02T12:14:08.916Z,16.70
2023-05-02T12:15:13.406Z,16.72
2023-05-02T12:16:17.674Z,16.67
2023-05-02T12:17:22.028Z,16.59
2023-05-02T12:18:26.374Z,16.35
2023-05-02T12:19:30.873Z,15.99
2023-05-02T12:20:35.186Z,15.68
2023-05-02T12:21:39.538Z,15.43
2023-05-02T12:22:43.786Z,15.32
2023-05-02T12:23:48.105Z,15.24
2023-05-02T12:24:52.467Z,15.14
2023-05-02T12:25:56.805Z,15.01
2023-05-02T12:27:01.115Z,14.96
2023-05-02T12:28:05.433Z,15.02
2023-05-02T12:29:09.877Z,15.22
2023-05-02T12:30:14.203Z,15.39
2023-05-02T12:31:18.512Z,15.50
2023-05-02T12:32:22.882Z,15.49
2023-05-02T12:33:27.333Z,15.37
2023-05-02T12:34:31.661Z,15.19
2023-05-02T12:35:36.052Z,14.99
2023-05-02T12:36:40.380Z,14.89
2023-05-02T12:37:45.567Z,14.95
2023-05-02T12:38:49.037Z,15.10
2023-05-02T12:39:53.400Z,15.20
2023-05-02T12:40:57.872Z,15.22
2023-05-02T12:42:02.062Z,15.25
2023-05-02T12:43:06.411Z,15.38
2023-05-02T12:44:10.743Z,15.55
2023-05-02T12:45:15.256Z,15.67
2023-05-02T12:46:19.594Z,15.65
2023-05-02T12:47:24.025Z,15.59
2023-05-02T12:48:28.288Z,15.56
2023-05-02T12:49:32.577Z,15.65
2023-05-02T12:50:37.065Z,15.73
2023-05-02T12:51:41.500Z,15.71
2023-05-02T12:52:45.722Z,15.75
2023-05-02T12:53:50.200Z,15.79
2023-05-02T12:54:54.477Z,15.77
2023-05-02T12:55:58.884Z,15.69
2023-05-02T12:57:03.371Z,15.58
2023-05-02T12:58:07.693Z,15.51
2023-05-02T12:59:12.093Z,15.53
2023-05-02T13:00:16.375Z,15.65
2023-05-02T13:01:20.886Z,15.72
2023-05-02T13:02:25.312Z,15.66
2023-05-02T13:03:29.623Z,15.57
2023-05-02T13:04:34.017Z,15.45
2023-05-02T13:05:38.442Z,15.38
2023-05-02T13:06:44.056Z,15.33
2023-05-02T13:07:47.204Z,15.21
2023-05-02T13:08:51.401Z,15.04
2023-05-02T13:09:55.815Z,14.95
2023-05-02T13:11:00.234Z,14.89
2023-05-02T13:12:04.550Z,14.81
2023-05-02T13:13:08.921Z,14.76
2023-05-02T13:14:13.200Z,14.70
2023-05-02T13:15:17.549Z,14.67
2023-05-02T13:16:21.998Z,14.71
2023-05-02T13:17:26.524Z,14.82
2023-05-02T13:18:30.698Z,14.95
2023-05-02T13:19:40.499Z,15.09
2023-05-02T13:20:41.667Z,15.25
2023-05-02T13:21:45.956Z,15.35
2023-05-02T13:22:50.243Z,15.41
2023-05-02T13:23:54.592Z,15.40
2023-05-02T13:24:58.957Z,15.37
2023-05-02T13:26:03.277Z,15.31
2023-05-02T13:27:07.559Z,15.20
2023-05-02T13:28:12.017Z,15.17
2023-05-02T13:29:16.347Z,15.16
2023-05-02T13:30:20.743Z,15.15
2023-05-02T13:31:25.167Z,15.17
2023-05-02T13:32:29.461Z,15.17
2023-05-02T13:33:33.795Z,15.16
2023-05-02T13:34:38.096Z,15.10
2023-05-02T13:35:42.508Z,15.05
2023-05-02T13:36:46.883Z,15.02
2023-05-02T13:37:51.273Z,15.01
2023-05-02T13:38:55.584Z,15.01
2023-05-02T13:40:06.038Z,15.03
2023-05-02T13:41:08.961Z,15.08
2023-05-02T13:42:13.267Z,15.13
2023-05-02T13:43:17.692Z,15.17
2023-05-02T13:44:22.008Z,15.19
2023-05-02T13:45:26.311Z,15.21
2023-05-02T13:46:30.793Z,15.17
2023-05-02T13:47:35.200Z,15.11
2023-05-02T13:48:39.444Z,15.01
2023-05-02T13:49:43.744Z,14.94
2023-05-02T13:50:48.050Z,14.88
2023-05-02T13:51:52.499Z,14.79
2023-05-02T13:52:56.642Z,14.67
2023-05-02T13:54:01.012Z,14.57
2023-05-02T13:55:05.392Z,14.51
2023-05-02T13:56:09.781Z,14.47
2023-05-02T13:57:14.085Z,14.50
2023-05-02T13:58:18.498Z,14.52
2023-05-02T13:59:22.753Z,14.53